Time;durP1;ratioP1;P1;durP2;ratioP2;P2;SDS_P1;SDS_P2;PMS_P1;PMS_P2;Temp;Humidity;BMP_temperature;BMP_pressure;BME280_temperature;BME280_humidity;BME280_pressure;Samples;Min_cycle;Max_cycle;Signal;HPM_P1;HPM_P2
2022/10/26 00:02:19;;;;;;;2.92;1.52;;;;;;;;;;4978629;28;20014;-78
2022/10/26 00:04:45;;;;;;;1.40;1.30;;;;;;;;;;4993041;28;20039;-78
2022/10/26 00:07:11;;;;;;;1.38;1.25;;;;;;;;;;4976240;28;20031;-78
2022/10/26 00:09:38;;;;;;;2.92;1.40;;;;;;;;;;4974415;28;20065;-78
2022/10/26 00:12:04;;;;;;;2.78;1.25;;;;;;;;;;4980827;28;20081;-78
2022/10/26 00:14:30;;;;;;;1.13;1.13;;;;;;;;;;4980587;28;20186;-78
2022/10/26 00:16:56;;;;;;;1.50;1.30;;;;;;;;;;4968515;28;20047;-78
2022/10/26 00:19:23;;;;;;;3.13;1.40;;;;;;;;;;4993399;28;20503;-78
2022/10/26 00:21:49;;;;;;;1.38;1.27;;;;;;;;;;4974051;28;20439;-78
2022/10/26 00:24:15;;;;;;;1.35;1.25;;;;;;;;;;4977714;28;20050;-78
2022/10/26 00:26:41;;;;;;;1.27;1.13;;;;;;;;;;4986418;28;20067;-79
2022/10/26 00:29:07;;;;;;;1.55;1.27;;;;;;;;;;4972797;28;20023;-78
2022/10/26 00:31:33;;;;;;;1.30;1.20;;;;;;;;;;4980457;28;20014;-78
2022/10/26 00:34:00;;;;;;;1.45;1.40;;;;;;;;;;4975414;28;20023;-78
2022/10/26 00:36:26;;;;;;;1.42;1.33;;;;;;;;;;4985426;28;20086;-79
2022/10/26 00:38:53;;;;;;;1.42;1.33;;;;;;;;;;4976616;28;20038;-78
2022/10/26 00:41:21;;;;;;;1.20;1.20;;;;;;;;;;4974507;28;20047;-77
2022/10/26 00:43:48;;;;;;;1.40;1.30;;;;;;;;;;4970678;28;20046;-79
2022/10/26 00:46:30;;;;;;;1.05;1.05;;;;;;;;;;4976352;28;20504;-77
2022/10/26 00:48:58;;;;;;;1.17;1.13;;;;;;;;;;4978021;28;20094;-78
2022/10/26 00:51:31;;;;;;;1.40;1.30;;;;;;;;;;4974016;28;20101;-77
2022/10/26 00:53:59;;;;;;;1.10;1.10;;;;;;;;;;4974401;28;20031;-79
2022/10/26 00:56:25;;;;;;;1.52;1.20;;;;;;;;;;4973390;28;20025;-78
2022/10/26 00:58:51;;;;;;;1.63;1.10;;;;;;;;;;4976159;28;20129;-77
2022/10/26 01:01:17;;;;;;;1.10;1.10;;;;;;;;;;4978983;28;20038;-78
2022/10/26 01:03:44;;;;;;;1.00;1.00;;;;;;;;;;4976843;28;20022;-78
2022/10/26 01:06:11;;;;;;;1.45;1.30;;;;;;;;;;4973141;28;20109;-78
2022/10/26 01:08:38;;;;;;;1.85;1.30;;;;;;;;;;4988740;28;20038;-78
2022/10/26 01:11:04;;;;;;;1.05;1.05;;;;;;;;;;4989628;28;20023;-78
2022/10/26 01:13:34;;;;;;;1.20;1.20;;;;;;;;;;4971248;28;20027;-78
2022/10/26 01:16:19;;;;;;;1.27;1.20;;;;;;;;;;4988391;28;20646;-78
2022/10/26 01:18:45;;;;;;;1.67;1.33;;;;;;;;;;4975819;28;20015;-78
2022/10/26 01:21:14;;;;;;;1.23;1.17;;;;;;;;;;4972849;28;20018;-78
2022/10/26 01:24:07;;;;;;;3.97;1.90;;;;;;;;;;4974852;28;20460;-78
2022/10/26 01:26:42;;;;;;;1.60;1.30;;;;;;;;;;4967102;28;20054;-78
2022/10/26 01:29:27;;;;;;;1.90;1.40;;;;;;;;;;4976413;28;20031;-78
2022/10/26 01:31:56;;;;;;;2.97;1.38;;;;;;;;;;4970195;28;20476;-80
2022/10/26 01:34:28;;;;;;;4.50;1.50;;;;;;;;;;4973279;28;20130;-78
2022/10/26 01:36:56;;;;;;;1.83;1.65;;;;;;;;;;4973529;28;20034;-78
2022/10/26 01:39:24;;;;;;;3.67;2.10;;;;;;;;;;4987580;28;20047;-79
2022/10/26 01:41:52;;;;;;;6.45;1.77;;;;;;;;;;4978830;28;20082;-80
2022/10/26 01:44:24;;;;;;;3.63;1.75;;;;;;;;;;4968462;28;20043;-79
2022/10/26 01:46:51;;;;;;;5.45;1.92;;;;;;;;;;4969816;28;20110;-79
2022/10/26 01:49:20;;;;;;;5.28;1.90;;;;;;;;;;4972822;28;20031;-79
2022/10/26 01:51:48;;;;;;;4.60;1.80;;;;;;;;;;4978482;28;20029;-78
2022/10/26 01:54:14;;;;;;;3.85;1.63;;;;;;;;;;4976535;28;20039;-79
2022/10/26 01:56:41;;;;;;;5.25;1.80;;;;;;;;;;4986717;28;20034;-78
2022/10/26 01:59:21;;;;;;;5.18;2.28;;;;;;;;;;4977185;28;20011;-79
2022/10/26 02:01:48;;;;;;;5.57;2.15;;;;;;;;;;4969723;28;20034;-78
2022/10/26 02:04:32;;;;;;;5.70;2.30;;;;;;;;;;4973624;28;20022;-79
2022/10/26 02:07:03;;;;;;;7.50;2.58;;;;;;;;;;4973920;28;20038;-79
2022/10/26 02:09:35;;;;;;;6.32;2.03;;;;;;;;;;4991648;28;20043;-79
2022/10/26 02:12:05;;;;;;;2.90;2.05;;;;;;;;;;4974277;28;20027;-80
2022/10/26 02:14:47;;;;;;;4.53;1.73;;;;;;;;;;4976899;28;20114;-79
2022/10/26 02:17:25;;;;;;;9.13;3.08;;;;;;;;;;4972756;28;20022;-79
2022/10/26 02:19:54;;;;;;;5.03;2.90;;;;;;;;;;4983893;28;20027;-79
2022/10/26 02:22:30;;;;;;;5.22;2.22;;;;;;;;;;4991426;28;20033;-80
2022/10/26 02:24:58;;;;;;;7.68;1.95;;;;;;;;;;4990779;28;20046;-79
2022/10/26 02:27:28;;;;;;;8.05;2.10;;;;;;;;;;4979416;28;20373;-79
2022/10/26 02:29:55;;;;;;;7.40;2.08;;;;;;;;;;4979749;28;20045;-79
2022/10/26 02:32:26;;;;;;;6.15;2.35;;;;;;;;;;4973858;28;20118;-80
2022/10/26 02:34:54;;;;;;;8.40;2.47;;;;;;;;;;4976253;28;20035;-79
2022/10/26 02:37:21;;;;;;;3.72;2.15;;;;;;;;;;4982942;28;20022;-79
2022/10/26 02:39:49;;;;;;;5.57;2.25;;;;;;;;;;4979497;28;20023;-79
2022/10/26 02:42:15;;;;;;;6.50;2.50;;;;;;;;;;4990106;28;20041;-79
2022/10/26 02:44:44;;;;;;;7.13;2.42;;;;;;;;;;4977957;28;20050;-80
2022/10/26 02:47:10;;;;;;;5.20;2.00;;;;;;;;;;4980164;28;20130;-80
2022/10/26 02:49:37;;;;;;;5.18;2.10;;;;;;;;;;4982686;28;20054;-79
2022/10/26 02:52:10;;;;;;;3.83;2.35;;;;;;;;;;4994037;28;20038;-79
2022/10/26 02:54:44;;;;;;;5.95;1.92;;;;;;;;;;4998048;28;20077;-78
2022/10/26 02:57:12;;;;;;;7.07;1.98;;;;;;;;;;4978748;28;20421;-76
2022/10/26 02:59:40;;;;;;;3.00;1.83;;;;;;;;;;4985228;28;20171;-77
2022/10/26 03:02:07;;;;;;;5.28;2.00;;;;;;;;;;4989980;28;20030;-78
2022/10/26 03:04:34;;;;;;;4.60;1.92;;;;;;;;;;4979382;28;20539;-78
2022/10/26 03:07:01;;;;;;;6.00;2.13;;;;;;;;;;4973593;28;20031;-77
2022/10/26 03:09:27;;;;;;;1.52;1.42;;;;;;;;;;4979020;28;20028;-78
2022/10/26 03:11:54;;;;;;;1.60;1.50;;;;;;;;;;4988788;28;20094;-78
2022/10/26 03:14:20;;;;;;;2.47;2.00;;;;;;;;;;4976589;28;20014;-78
2022/10/26 03:16:46;;;;;;;5.00;1.63;;;;;;;;;;4982184;28;20066;-78
2022/10/26 03:19:12;;;;;;;4.28;1.55;;;;;;;;;;4990620;28;20065;-78
2022/10/26 03:21:41;;;;;;;1.52;1.30;;;;;;;;;;4986296;28;20027;-76
2022/10/26 03:24:07;;;;;;;1.75;1.40;;;;;;;;;;4972501;28;20026;-76
2022/10/26 03:26:33;;;;;;;1.50;1.40;;;;;;;;;;4971718;28;20098;-76
2022/10/26 03:28:59;;;;;;;1.33;1.30;;;;;;;;;;4974081;28;20030;-78
2022/10/26 03:31:25;;;;;;;1.30;1.20;;;;;;;;;;4974045;28;20146;-77
2022/10/26 03:33:52;;;;;;;1.65;1.55;;;;;;;;;;4971790;28;20023;-78
2022/10/26 03:36:18;;;;;;;2.78;1.60;;;;;;;;;;4979981;28;20086;-77
2022/10/26 03:38:44;;;;;;;2.72;1.50;;;;;;;;;;4977507;28;20038;-78
2022/10/26 03:41:10;;;;;;;1.77;1.23;;;;;;;;;;4973850;28;20657;-78
2022/10/26 03:43:37;;;;;;;2.47;1.50;;;;;;;;;;4977430;28;20134;-78
2022/10/26 03:46:03;;;;;;;3.40;1.83;;;;;;;;;;4974669;28;20030;-79
2022/10/26 03:48:29;;;;;;;2.38;1.48;;;;;;;;;;4978469;28;20113;-78
2022/10/26 03:50:58;;;;;;;2.60;1.70;;;;;;;;;;4988733;28;20039;-78
2022/10/26 03:53:25;;;;;;;4.22;1.70;;;;;;;;;;4965153;28;20037;-78
2022/10/26 03:55:51;;;;;;;3.78;1.90;;;;;;;;;;4975119;28;20026;-78
2022/10/26 03:58:17;;;;;;;4.72;1.50;;;;;;;;;;4978260;28;20023;-78
2022/10/26 04:00:43;;;;;;;3.50;1.63;;;;;;;;;;4974695;28;20114;-78
2022/10/26 04:03:09;;;;;;;2.30;2.03;;;;;;;;;;4988851;28;20465;-77
2022/10/26 04:05:35;;;;;;;4.50;1.70;;;;;;;;;;4980761;28;20042;-79
2022/10/26 04:08:02;;;;;;;4.00;1.90;;;;;;;;;;4982348;28;20034;-78
2022/10/26 04:10:28;;;;;;;5.50;1.85;;;;;;;;;;4973166;28;20031;-79
2022/10/26 04:12:55;;;;;;;6.53;2.00;;;;;;;;;;4987746;28;20070;-79
2022/10/26 04:15:21;;;;;;;7.10;2.60;;;;;;;;;;4976600;28;20077;-79
2022/10/26 04:17:47;;;;;;;5.32;2.47;;;;;;;;;;4991216;28;20047;-78
2022/10/26 04:20:14;;;;;;;6.95;1.80;;;;;;;;;;4992071;28;20031;-78
2022/10/26 04:22:40;;;;;;;4.68;1.85;;;;;;;;;;4977340;28;20487;-80
2022/10/26 04:25:06;;;;;;;4.20;2.08;;;;;;;;;;4974164;28;20043;-79
2022/10/26 04:27:33;;;;;;;6.45;2.20;;;;;;;;;;4973815;28;20098;-78
2022/10/26 04:29:59;;;;;;;6.30;2.47;;;;;;;;;;4974590;28;20031;-76
2022/10/26 04:32:25;;;;;;;8.02;2.08;;;;;;;;;;4976866;28;20030;-79
2022/10/26 04:34:53;;;;;;;5.57;2.47;;;;;;;;;;4975281;28;20099;-78
2022/10/26 04:37:19;;;;;;;3.97;2.30;;;;;;;;;;4987369;28;20050;-79
2022/10/26 04:39:46;;;;;;;4.97;1.95;;;;;;;;;;4985489;28;20031;-78
2022/10/26 04:42:12;;;;;;;2.95;1.73;;;;;;;;;;4991694;28;20015;-79
2022/10/26 04:44:38;;;;;;;7.07;2.67;;;;;;;;;;4976013;28;20051;-78
2022/10/26 04:47:04;;;;;;;3.42;2.10;;;;;;;;;;4982796;28;20018;-78
2022/10/26 04:49:30;;;;;;;3.33;1.52;;;;;;;;;;4989573;28;20093;-78
2022/10/26 04:51:56;;;;;;;6.18;2.28;;;;;;;;;;4980069;28;20069;-77
2022/10/26 04:54:22;;;;;;;4.80;2.58;;;;;;;;;;4980763;28;20031;-78
2022/10/26 04:56:48;;;;;;;7.13;1.98;;;;;;;;;;4968924;28;20027;-77
2022/10/26 04:59:14;;;;;;;2.58;1.65;;;;;;;;;;4974133;28;20050;-77
2022/10/26 05:01:40;;;;;;;6.18;2.72;;;;;;;;;;4978192;28;20571;-78
2022/10/26 05:04:07;;;;;;;6.68;2.00;;;;;;;;;;4988250;28;20053;-78
2022/10/26 05:06:33;;;;;;;7.40;2.22;;;;;;;;;;4971539;28;20549;-78
2022/10/26 05:08:59;;;;;;;3.50;1.75;;;;;;;;;;4985257;28;20029;-78
2022/10/26 05:11:25;;;;;;;7.53;2.70;;;;;;;;;;4978590;28;20041;-78
2022/10/26 05:13:51;;;;;;;3.55;2.08;;;;;;;;;;4991532;28;20074;-78
2022/10/26 05:16:17;;;;;;;4.80;2.60;;;;;;;;;;4975452;28;20048;-78
2022/10/26 05:18:43;;;;;;;6.13;2.53;;;;;;;;;;4991601;28;20027;-78
2022/10/26 05:21:11;;;;;;;8.07;2.40;;;;;;;;;;4986370;28;20022;-79
2022/10/26 05:23:37;;;;;;;8.63;2.67;;;;;;;;;;4986393;28;20023;-80
2022/10/26 05:26:03;;;;;;;9.82;3.05;;;;;;;;;;4982055;28;20011;-78
2022/10/26 05:28:29;;;;;;;10.05;3.03;;;;;;;;;;4975623;28;20100;-78
2022/10/26 05:30:58;;;;;;;15.07;5.05;;;;;;;;;;4972994;28;20114;-80
2022/10/26 05:33:24;;;;;;;9.55;2.90;;;;;;;;;;4974996;28;20468;-78
2022/10/26 05:35:53;;;;;;;10.85;2.50;;;;;;;;;;4981117;28;20074;-78
2022/10/26 05:38:24;;;;;;;6.45;2.22;;;;;;;;;;4974936;28;20456;-77
2022/10/26 05:40:51;;;;;;;11.00;3.47;;;;;;;;;;4992043;28;20536;-79
2022/10/26 05:43:17;;;;;;;10.05;3.22;;;;;;;;;;4976549;28;20043;-79
2022/10/26 05:45:43;;;;;;;13.98;2.65;;;;;;;;;;4975751;28;20019;-78
2022/10/26 05:48:11;;;;;;;10.07;3.03;;;;;;;;;;4988642;28;20031;-78
2022/10/26 05:50:37;;;;;;;11.95;3.35;;;;;;;;;;4984711;28;20027;-79
2022/10/26 05:53:03;;;;;;;19.77;4.25;;;;;;;;;;4979317;28;20031;-78
2022/10/26 05:55:30;;;;;;;13.15;3.67;;;;;;;;;;4976538;28;20062;-79
2022/10/26 05:57:56;;;;;;;16.55;3.78;;;;;;;;;;4981680;28;20108;-78
2022/10/26 06:00:25;;;;;;;9.27;2.63;;;;;;;;;;4981080;28;20069;-78
2022/10/26 06:03:00;;;;;;;11.40;2.97;;;;;;;;;;4983020;28;20030;-79
2022/10/26 06:05:28;;;;;;;18.52;5.18;;;;;;;;;;4974623;28;20031;-78
2022/10/26 06:07:54;;;;;;;18.40;4.10;;;;;;;;;;4987223;28;20054;-78
2022/10/26 06:10:20;;;;;;;12.25;3.55;;;;;;;;;;4995979;28;20018;-78
2022/10/26 06:12:47;;;;;;;10.15;3.72;;;;;;;;;;4976431;28;20396;-78
2022/10/26 06:15:18;;;;;;;10.15;3.92;;;;;;;;;;4977551;28;20038;-78
2022/10/26 06:17:49;;;;;;;11.10;3.33;;;;;;;;;;4981088;28;20066;-78
2022/10/26 06:20:34;;;;;;;15.30;3.75;;;;;;;;;;4984026;28;20035;-80
2022/10/26 06:23:18;;;;;;;20.58;3.83;;;;;;;;;;4994522;28;20023;-78
2022/10/26 06:25:56;;;;;;;12.35;3.50;;;;;;;;;;4980189;28;20054;-78
2022/10/26 06:28:41;;;;;;;10.20;3.30;;;;;;;;;;4992228;28;20015;-78
2022/10/26 06:31:07;;;;;;;11.55;3.30;;;;;;;;;;4985450;28;20547;-77
2022/10/26 06:33:33;;;;;;;8.05;3.40;;;;;;;;;;4978936;28;20053;-79
2022/10/26 06:36:03;;;;;;;11.85;3.97;;;;;;;;;;4986258;28;20023;-78
2022/10/26 06:38:32;;;;;;;11.90;2.88;;;;;;;;;;4975322;28;20015;-79
2022/10/26 06:40:59;;;;;;;11.43;2.80;;;;;;;;;;4993194;28;20046;-80
2022/10/26 06:43:25;;;;;;;10.45;3.15;;;;;;;;;;4979322;28;20045;-79
2022/10/26 06:46:16;;;;;;;9.30;3.78;;;;;;;;;;4989329;28;20449;-79
2022/10/26 06:48:51;;;;;;;19.17;4.15;;;;;;;;;;4958402;28;20650;-79
2022/10/26 06:51:17;;;;;;;17.60;4.20;;;;;;;;;;4973872;28;20035;-78
2022/10/26 06:53:49;;;;;;;9.43;2.88;;;;;;;;;;4975905;28;20032;-79
2022/10/26 06:56:16;;;;;;;19.73;3.67;;;;;;;;;;4972345;28;20384;-79
2022/10/26 06:58:44;;;;;;;9.43;2.50;;;;;;;;;;4978962;28;20385;-79
2022/10/26 07:01:11;;;;;;;8.98;2.50;;;;;;;;;;4975263;28;20027;-78
2022/10/26 07:03:37;;;;;;;7.25;3.25;;;;;;;;;;4978053;28;20062;-78
2022/10/26 07:06:06;;;;;;;8.57;3.17;;;;;;;;;;4976657;28;20027;-79
2022/10/26 07:08:32;;;;;;;11.20;3.22;;;;;;;;;;4976920;28;20141;-78
2022/10/26 07:10:58;;;;;;;8.65;2.50;;;;;;;;;;4978991;28;20102;-78
2022/10/26 07:13:24;;;;;;;7.88;2.47;;;;;;;;;;4971210;28;20049;-78
2022/10/26 07:15:50;;;;;;;11.95;3.13;;;;;;;;;;4977771;28;20034;-78
2022/10/26 07:18:16;;;;;;;13.20;3.72;;;;;;;;;;4984439;28;20038;-79
2022/10/26 07:20:42;;;;;;;9.98;2.70;;;;;;;;;;4972361;28;20039;-79
2022/10/26 07:23:12;;;;;;;9.68;3.42;;;;;;;;;;4976284;28;20483;-79
2022/10/26 07:25:39;;;;;;;12.63;2.65;;;;;;;;;;4975972;28;20022;-79
2022/10/26 07:28:09;;;;;;;13.85;3.80;;;;;;;;;;4989583;28;20026;-80
2022/10/26 07:30:36;;;;;;;9.88;4.07;;;;;;;;;;4990169;28;20037;-79
2022/10/26 07:33:07;;;;;;;10.40;3.22;;;;;;;;;;4978353;28;20027;-78
2022/10/26 07:35:33;;;;;;;8.43;3.35;;;;;;;;;;4977722;28;20058;-80
2022/10/26 07:37:59;;;;;;;11.77;3.58;;;;;;;;;;4996933;28;20082;-81
2022/10/26 07:40:26;;;;;;;7.72;3.72;;;;;;;;;;4980243;28;20023;-80
2022/10/26 07:42:52;;;;;;;12.80;3.80;;;;;;;;;;4975119;28;20037;-81
2022/10/26 07:45:19;;;;;;;11.77;3.35;;;;;;;;;;4976355;28;20113;-79
2022/10/26 07:47:45;;;;;;;9.95;3.58;;;;;;;;;;4983683;28;20035;-79
2022/10/26 07:50:11;;;;;;;13.02;4.13;;;;;;;;;;4994441;28;20571;-79
2022/10/26 07:52:40;;;;;;;10.10;3.45;;;;;;;;;;4972107;28;20031;-80
2022/10/26 07:55:06;;;;;;;12.32;3.42;;;;;;;;;;4957321;28;20053;-79
2022/10/26 07:57:33;;;;;;;21.67;4.63;;;;;;;;;;4969672;28;20019;-79
2022/10/26 07:59:59;;;;;;;13.75;4.95;;;;;;;;;;4992906;28;20037;-79
2022/10/26 08:02:25;;;;;;;11.73;4.30;;;;;;;;;;4975287;28;20031;-80
2022/10/26 08:04:51;;;;;;;9.88;2.70;;;;;;;;;;4968548;28;20035;-79
2022/10/26 08:07:18;;;;;;;17.55;4.43;;;;;;;;;;4973962;28;20046;-80
2022/10/26 08:09:44;;;;;;;9.63;3.28;;;;;;;;;;4986271;28;20126;-80
2022/10/26 08:12:12;;;;;;;13.68;3.13;;;;;;;;;;4971671;28;20096;-81
2022/10/26 08:14:41;;;;;;;8.82;3.53;;;;;;;;;;4978006;28;20030;-81
2022/10/26 08:17:10;;;;;;;8.65;3.30;;;;;;;;;;4996200;28;20030;-80
2022/10/26 08:19:39;;;;;;;10.93;2.85;;;;;;;;;;4993709;28;20147;-80
2022/10/26 08:22:05;;;;;;;7.90;2.75;;;;;;;;;;4996883;28;20026;-82
2022/10/26 08:24:34;;;;;;;13.38;4.25;;;;;;;;;;4978968;28;20476;-80
2022/10/26 08:27:03;;;;;;;8.55;2.65;;;;;;;;;;4989049;28;20027;-80
2022/10/26 08:29:31;;;;;;;12.88;3.03;;;;;;;;;;4972802;28;20369;-80
2022/10/26 08:32:00;;;;;;;8.30;2.70;;;;;;;;;;4975344;28;20066;-78
2022/10/26 08:34:26;;;;;;;8.55;2.78;;;;;;;;;;4974482;28;20042;-80
2022/10/26 08:36:52;;;;;;;12.40;3.40;;;;;;;;;;4975072;28;20061;-79
2022/10/26 08:39:22;;;;;;;10.52;2.85;;;;;;;;;;4993891;28;21713;-78
2022/10/26 08:41:52;;;;;;;6.65;3.00;;;;;;;;;;4971191;28;20089;-78
2022/10/26 08:44:38;;;;;;;7.90;3.25;;;;;;;;;;4971058;28;20047;-79
2022/10/26 08:47:33;;;;;;;11.27;3.67;;;;;;;;;;4973548;28;20049;-79
2022/10/26 08:50:12;;;;;;;8.63;4.18;;;;;;;;;;4963950;28;20085;-80
2022/10/26 08:53:02;;;;;;;10.55;4.03;;;;;;;;;;4987574;28;20062;-79
2022/10/26 08:55:34;;;;;;;9.35;3.63;;;;;;;;;;4987711;28;20030;-80
2022/10/26 08:58:01;;;;;;;10.00;2.90;;;;;;;;;;4986407;28;20006;-80
2022/10/26 09:00:30;;;;;;;9.85;2.78;;;;;;;;;;4969840;28;20035;-80
2022/10/26 09:02:56;;;;;;;6.85;2.47;;;;;;;;;;4973165;28;20495;-81
2022/10/26 09:05:25;;;;;;;5.68;3.10;;;;;;;;;;4984058;28;20045;-79
2022/10/26 09:08:01;;;;;;;7.07;3.13;;;;;;;;;;4971438;28;20031;-80
2022/10/26 09:10:30;;;;;;;11.20;2.92;;;;;;;;;;4986543;28;20039;-79
2022/10/26 09:13:23;;;;;;;12.10;2.72;;;;;;;;;;4987146;28;20041;-79
2022/10/26 09:15:49;;;;;;;5.45;2.17;;;;;;;;;;4966076;28;20035;-80
2022/10/26 09:18:30;;;;;;;8.35;2.58;;;;;;;;;;4970599;28;20030;-80
2022/10/26 09:21:25;;;;;;;7.68;3.85;;;;;;;;;;4968850;28;20660;-80
2022/10/26 09:23:52;;;;;;;6.13;2.72;;;;;;;;;;4919783;28;20016;-80
2022/10/26 09:26:38;;;;;;;11.00;2.80;;;;;;;;;;4987477;28;20114;-78
2022/10/26 09:29:06;;;;;;;8.98;2.95;;;;;;;;;;4970602;28;20098;-79
2022/10/26 09:31:35;;;;;;;8.20;3.33;;;;;;;;;;4986493;28;20027;-82
2022/10/26 09:34:04;;;;;;;11.05;3.15;;;;;;;;;;4970798;28;20035;-80
2022/10/26 09:36:30;;;;;;;9.35;2.67;;;;;;;;;;4969931;28;20102;-80
2022/10/26 09:39:00;;;;;;;8.23;2.42;;;;;;;;;;4985967;28;20058;-79
2022/10/26 09:41:42;;;;;;;6.00;2.38;;;;;;;;;;4972703;28;20027;-80
2022/10/26 09:44:20;;;;;;;10.30;2.85;;;;;;;;;;4970679;28;20093;-80
2022/10/26 09:46:56;;;;;;;7.32;3.28;;;;;;;;;;4972925;28;20041;-80
2022/10/26 09:49:29;;;;;;;9.88;3.25;;;;;;;;;;4974099;28;20098;-81
2022/10/26 09:51:55;;;;;;;6.32;2.40;;;;;;;;;;4969107;28;20066;-79
2022/10/26 09:54:21;;;;;;;7.22;2.50;;;;;;;;;;4970406;28;20035;-80
2022/10/26 09:56:51;;;;;;;5.00;2.17;;;;;;;;;;4971419;28;20030;-80
2022/10/26 09:59:19;;;;;;;12.43;2.78;;;;;;;;;;4986380;28;20026;-81
2022/10/26 10:01:45;;;;;;;9.13;3.50;;;;;;;;;;4986442;28;20022;-81
2022/10/26 10:04:21;;;;;;;8.40;2.78;;;;;;;;;;4973859;28;20027;-80
2022/10/26 10:06:51;;;;;;;6.25;2.35;;;;;;;;;;4972011;28;20054;-80
2022/10/26 10:09:23;;;;;;;6.78;3.20;;;;;;;;;;4968627;28;20062;-80
2022/10/26 10:11:55;;;;;;;9.65;2.53;;;;;;;;;;4969798;28;20022;-79
2022/10/26 10:14:28;;;;;;;8.30;2.97;;;;;;;;;;4971213;28;20061;-80
2022/10/26 10:16:59;;;;;;;6.00;2.83;;;;;;;;;;4971394;28;20023;-79
2022/10/26 10:19:27;;;;;;;6.47;3.40;;;;;;;;;;4971971;28;20034;-80
2022/10/26 10:21:59;;;;;;;9.60;3.25;;;;;;;;;;4972641;28;20059;-80
2022/10/26 10:24:30;;;;;;;6.18;2.28;;;;;;;;;;4974279;28;20033;-80
2022/10/26 10:27:00;;;;;;;12.93;4.20;;;;;;;;;;4975321;28;20050;-81
2022/10/26 10:29:28;;;;;;;6.07;2.50;;;;;;;;;;4991938;28;20594;-81
2022/10/26 10:32:01;;;;;;;7.72;2.50;;;;;;;;;;4973519;28;20019;-78
2022/10/26 10:34:29;;;;;;;6.05;2.80;;;;;;;;;;4970848;28;20026;-78
2022/10/26 10:36:55;;;;;;;7.90;2.47;;;;;;;;;;4975749;28;20015;-80
2022/10/26 10:39:34;;;;;;;5.40;2.78;;;;;;;;;;4973762;28;20071;-79
2022/10/26 10:42:00;;;;;;;15.85;3.25;;;;;;;;;;4975666;28;20031;-82
2022/10/26 10:44:30;;;;;;;8.38;2.80;;;;;;;;;;4986748;28;20085;-79
2022/10/26 10:47:01;;;;;;;9.25;2.95;;;;;;;;;;4973952;28;20031;-79
2022/10/26 10:49:27;;;;;;;10.07;2.58;;;;;;;;;;4988450;28;20089;-78
2022/10/26 10:51:55;;;;;;;6.72;2.40;;;;;;;;;;4973751;28;20023;-79
2022/10/26 10:54:24;;;;;;;12.65;3.15;;;;;;;;;;4972005;28;20094;-79
2022/10/26 10:56:52;;;;;;;7.68;2.70;;;;;;;;;;4990489;28;20053;-78
2022/10/26 10:59:18;;;;;;;9.68;3.13;;;;;;;;;;4973308;28;20030;-78
2022/10/26 11:01:47;;;;;;;8.10;2.58;;;;;;;;;;4973080;28;20103;-79
2022/10/26 11:04:20;;;;;;;8.32;2.55;;;;;;;;;;4968530;28;20030;-80
2022/10/26 11:06:48;;;;;;;6.72;2.67;;;;;;;;;;4968909;28;20046;-80
2022/10/26 11:09:19;;;;;;;10.25;2.47;;;;;;;;;;4983455;28;20023;-81
2022/10/26 11:12:14;;;;;;;9.95;3.58;;;;;;;;;;4967574;28;20092;-79
2022/10/26 11:14:45;;;;;;;9.43;2.80;;;;;;;;;;4972017;28;20039;-81
2022/10/26 11:17:14;;;;;;;10.55;3.50;;;;;;;;;;4989847;28;20522;-79
2022/10/26 11:19:48;;;;;;;7.95;2.30;;;;;;;;;;4974761;28;20546;-86
2022/10/26 11:22:16;;;;;;;10.20;2.65;;;;;;;;;;4976992;28;20022;-80
2022/10/26 11:24:48;;;;;;;3.50;2.10;;;;;;;;;;4974827;28;20058;-83
2022/10/26 11:27:30;;;;;;;8.02;2.15;;;;;;;;;;4974285;28;20046;-80
2022/10/26 11:30:14;;;;;;;7.78;2.95;;;;;;;;;;4973659;28;20034;-80
2022/10/26 11:33:02;;;;;;;6.35;2.30;;;;;;;;;;4988502;28;20736;-79
2022/10/26 11:35:35;;;;;;;8.20;3.13;;;;;;;;;;4973885;28;20105;-79
2022/10/26 11:38:02;;;;;;;5.50;2.15;;;;;;;;;;4974490;28;20026;-80
2022/10/26 11:40:34;;;;;;;5.00;2.20;;;;;;;;;;4988381;28;20031;-81
2022/10/26 11:43:23;;;;;;;8.40;2.60;;;;;;;;;;4987622;28;20109;-80
2022/10/26 11:46:13;;;;;;;6.90;2.40;;;;;;;;;;4975511;28;20039;-80
2022/10/26 11:48:55;;;;;;;7.47;2.15;;;;;;;;;;4971881;28;20062;-79
2022/10/26 11:51:41;;;;;;;5.70;2.28;;;;;;;;;;4989341;28;20035;-80
2022/10/26 11:54:31;;;;;;;7.93;3.05;;;;;;;;;;4975414;28;20023;-80
2022/10/26 11:56:58;;;;;;;9.02;2.42;;;;;;;;;;4976623;28;20588;-80
2022/10/26 11:59:28;;;;;;;6.90;3.08;;;;;;;;;;4974259;28;20613;-80
2022/10/26 12:01:56;;;;;;;8.88;3.15;;;;;;;;;;4972719;28;20039;-80
2022/10/26 12:04:25;;;;;;;10.77;3.40;;;;;;;;;;4973615;28;20027;-80
2022/10/26 12:06:53;;;;;;;9.45;2.78;;;;;;;;;;4972711;28;20039;-80
2022/10/26 12:09:39;;;;;;;7.28;2.60;;;;;;;;;;4975215;28;20026;-80
2022/10/26 12:12:11;;;;;;;6.35;2.63;;;;;;;;;;4985853;28;20031;-80
2022/10/26 12:14:50;;;;;;;6.20;2.55;;;;;;;;;;4987970;28;20054;-78
2022/10/26 12:17:39;;;;;;;10.10;2.80;;;;;;;;;;4973252;28;20034;-80
2022/10/26 12:20:24;;;;;;;6.00;2.40;;;;;;;;;;4973428;28;20495;-80
2022/10/26 12:22:50;;;;;;;5.50;3.20;;;;;;;;;;4985650;28;20027;-79
2022/10/26 12:25:16;;;;;;;7.22;2.95;;;;;;;;;;4974652;28;20114;-79
2022/10/26 12:27:42;;;;;;;8.38;2.83;;;;;;;;;;4985424;28;20022;-80
2022/10/26 12:30:11;;;;;;;7.05;2.55;;;;;;;;;;4987664;28;20586;-79
2022/10/26 12:32:37;;;;;;;8.75;2.40;;;;;;;;;;4987291;28;20047;-80
2022/10/26 12:35:23;;;;;;;8.60;3.65;;;;;;;;;;4973414;28;20031;-78
2022/10/26 12:37:50;;;;;;;8.25;2.60;;;;;;;;;;4970795;28;20038;-79
2022/10/26 12:40:32;;;;;;;12.77;3.08;;;;;;;;;;4972500;28;20042;-78
2022/10/26 12:43:14;;;;;;;6.90;2.60;;;;;;;;;;4984546;28;20031;-78
2022/10/26 12:45:44;;;;;;;8.32;2.90;;;;;;;;;;4987029;28;20035;-79
2022/10/26 12:48:24;;;;;;;8.82;2.65;;;;;;;;;;4972157;28;20031;-79
2022/10/26 12:50:51;;;;;;;8.38;3.10;;;;;;;;;;4971280;28;20059;-79
2022/10/26 12:53:20;;;;;;;8.35;2.63;;;;;;;;;;4969525;28;20041;-81
2022/10/26 12:55:49;;;;;;;7.15;2.90;;;;;;;;;;4968659;28;20724;-80
2022/10/26 12:58:34;;;;;;;8.68;2.78;;;;;;;;;;4985303;28;20086;-80
2022/10/26 13:01:00;;;;;;;8.15;2.80;;;;;;;;;;4988089;28;20046;-80
2022/10/26 13:03:32;;;;;;;3.15;2.00;;;;;;;;;;4970807;28;20021;-80
2022/10/26 13:05:58;;;;;;;1.30;1.20;;;;;;;;;;4986428;28;20026;-79
2022/10/26 13:08:24;;;;;;;5.05;1.95;;;;;;;;;;4970580;28;20035;-78
2022/10/26 13:11:02;;;;;;;8.48;2.00;;;;;;;;;;4971467;28;20029;-78
2022/10/26 13:13:30;;;;;;;3.47;2.42;;;;;;;;;;4968313;28;20023;-77
2022/10/26 13:15:58;;;;;;;3.55;1.50;;;;;;;;;;4970562;28;20026;-77
2022/10/26 13:18:25;;;;;;;4.45;1.75;;;;;;;;;;4968718;28;20023;-77
2022/10/26 13:21:12;;;;;;;5.15;2.67;;;;;;;;;;4983047;28;20041;-76
2022/10/26 13:23:40;;;;;;;2.67;2.22;;;;;;;;;;4981980;28;20027;-76
2022/10/26 13:26:16;;;;;;;4.65;2.03;;;;;;;;;;4969377;28;20042;-75
2022/10/26 13:28:50;;;;;;;4.20;2.10;;;;;;;;;;4967815;28;20049;-75
2022/10/26 13:31:30;;;;;;;4.78;2.00;;;;;;;;;;4981613;28;20037;-77
2022/10/26 13:33:59;;;;;;;2.85;2.10;;;;;;;;;;4983868;28;20093;-77
2022/10/26 13:36:45;;;;;;;5.28;1.90;;;;;;;;;;4969807;28;20031;-78
2022/10/26 13:39:23;;;;;;;9.63;2.22;;;;;;;;;;4972487;28;20033;-78
2022/10/26 13:41:51;;;;;;;4.90;2.53;;;;;;;;;;4981025;28;20086;-78
2022/10/26 13:44:24;;;;;;;5.90;3.45;;;;;;;;;;4966131;28;20462;-78
2022/10/26 13:46:56;;;;;;;6.18;2.55;;;;;;;;;;4967990;28;20041;-79
2022/10/26 13:49:24;;;;;;;5.05;2.15;;;;;;;;;;4986243;28;20034;-78
2022/10/26 13:51:51;;;;;;;7.22;2.40;;;;;;;;;;4968351;28;20022;-79
2022/10/26 13:54:17;;;;;;;8.48;2.65;;;;;;;;;;4968978;28;20050;-78
2022/10/26 13:57:07;;;;;;;9.23;3.38;;;;;;;;;;4972614;28;21100;-81
2022/10/26 13:59:37;;;;;;;7.03;3.00;;;;;;;;;;4961609;28;20105;-77
2022/10/26 14:02:07;;;;;;;4.53;2.20;;;;;;;;;;4967641;28;20027;-76
2022/10/26 14:04:33;;;;;;;4.32;1.73;;;;;;;;;;4966523;28;20727;-77
2022/10/26 14:06:59;;;;;;;5.85;2.25;;;;;;;;;;4963913;28;20061;-76
2022/10/26 14:09:28;;;;;;;2.72;1.70;;;;;;;;;;4965603;28;20373;-77
2022/10/26 14:11:59;;;;;;;7.53;3.63;;;;;;;;;;4986333;28;20118;-77
2022/10/26 14:14:28;;;;;;;6.43;3.40;;;;;;;;;;4969685;28;20015;-77
2022/10/26 14:16:54;;;;;;;7.00;4.05;;;;;;;;;;4969801;28;20121;-78
2022/10/26 14:19:24;;;;;;;4.35;3.15;;;;;;;;;;4970731;28;20110;-77
2022/10/26 14:21:50;;;;;;;5.50;3.15;;;;;;;;;;4971125;28;20065;-79
2022/10/26 14:24:21;;;;;;;3.65;2.50;;;;;;;;;;4970880;28;20027;-77
2022/10/26 14:26:47;;;;;;;5.63;2.58;;;;;;;;;;4973827;28;20030;-77
2022/10/26 14:29:18;;;;;;;3.05;1.75;;;;;;;;;;4987665;28;20030;-78
2022/10/26 14:31:44;;;;;;;2.58;2.08;;;;;;;;;;4985076;28;20122;-78
2022/10/26 14:34:11;;;;;;;3.47;2.00;;;;;;;;;;4971896;28;20552;-78
2022/10/26 14:36:45;;;;;;;8.43;2.33;;;;;;;;;;4970044;28;20838;-79
2022/10/26 14:39:18;;;;;;;4.70;2.08;;;;;;;;;;4987710;28;20030;-77
2022/10/26 14:41:44;;;;;;;4.93;1.70;;;;;;;;;;4985843;28;20038;-78
2022/10/26 14:44:18;;;;;;;4.22;2.10;;;;;;;;;;4971316;28;20050;-78
2022/10/26 14:46:44;;;;;;;3.67;1.83;;;;;;;;;;4968463;28;20038;-79
2022/10/26 14:49:17;;;;;;;3.47;1.80;;;;;;;;;;4967930;28;20035;-77
2022/10/26 14:51:43;;;;;;;3.42;2.05;;;;;;;;;;4972873;28;20035;-78
2022/10/26 14:54:20;;;;;;;2.75;2.53;;;;;;;;;;4983868;28;20045;-79
2022/10/26 14:56:46;;;;;;;4.78;2.60;;;;;;;;;;4970515;28;20026;-77
2022/10/26 14:59:18;;;;;;;5.20;2.70;;;;;;;;;;4967964;28;20034;-78